sensor_id;sensor_type;location;lat;lon;timestamp;P1;durP1;ratioP1;P2;durP2;ratioP2
32329;SDS011;18807;52.434;13.238;2022-12-24T00:01:40;17.58;;;9.27;;
32329;SDS011;18807;52.434;13.238;2022-12-24T00:09:16;17.70;;;7.70;;
32329;SDS011;18807;52.434;13.238;2022-12-24T00:16:49;13.00;;;7.47;;
32329;SDS011;18807;52.434;13.238;2022-12-24T00:24:25;11.97;;;6.47;;
32329;SDS011;18807;52.434;13.238;2022-12-24T00:31:59;10.18;;;5.97;;
32329;SDS011;18807;52.434;13.238;2022-12-24T00:39:34;16.13;;;7.67;;
32329;SDS011;18807;52.434;13.238;2022-12-24T00:47:08;11.70;;;6.13;;
32329;SDS011;18807;52.434;13.238;2022-12-24T00:54:45;9.48;;;5.60;;
32329;SDS011;18807;52.434;13.238;2022-12-24T01:02:20;13.27;;;6.82;;
32329;SDS011;18807;52.434;13.238;2022-12-24T01:09:55;10.23;;;5.77;;
32329;SDS011;18807;52.434;13.238;2022-12-24T01:17:29;8.10;;;5.35;;
32329;SDS011;18807;52.434;13.238;2022-12-24T01:25:05;9.30;;;5.85;;
32329;SDS011;18807;52.434;13.238;2022-12-24T01:32:40;9.90;;;5.63;;
32329;SDS011;18807;52.434;13.238;2022-12-24T01:40:16;9.63;;;5.73;;
32329;SDS011;18807;52.434;13.238;2022-12-24T01:48:10;9.23;;;5.05;;
32329;SDS011;18807;52.434;13.238;2022-12-24T01:55:56;9.10;;;5.72;;
32329;SDS011;18807;52.434;13.238;2022-12-24T02:03:30;11.50;;;5.88;;
32329;SDS011;18807;52.434;13.238;2022-12-24T02:18:56;10.45;;;6.00;;
32329;SDS011;18807;52.434;13.238;2022-12-24T02:26:46;10.35;;;5.80;;
32329;SDS011;18807;52.434;13.238;2022-12-24T02:34:43;11.30;;;6.32;;
32329;SDS011;18807;52.434;13.238;2022-12-24T02:42:22;11.13;;;6.68;;
32329;SDS011;18807;52.434;13.238;2022-12-24T02:50:01;10.50;;;6.35;;
32329;SDS011;18807;52.434;13.238;2022-12-24T02:57:40;9.32;;;5.60;;
32329;SDS011;18807;52.434;13.238;2022-12-24T03:05:26;12.43;;;6.80;;
32329;SDS011;18807;52.434;13.238;2022-12-24T03:13:08;11.75;;;7.00;;
32329;SDS011;18807;52.434;13.238;2022-12-24T03:20:49;12.77;;;7.10;;
32329;SDS011;18807;52.434;13.238;2022-12-24T03:28:29;9.98;;;6.25;;
32329;SDS011;18807;52.434;13.238;2022-12-24T03:36:06;13.70;;;7.72;;
32329;SDS011;18807;52.434;13.238;2022-12-24T03:43:41;13.85;;;7.72;;
32329;SDS011;18807;52.434;13.238;2022-12-24T03:51:17;13.17;;;7.70;;
32329;SDS011;18807;52.434;13.238;2022-12-24T03:58:51;14.95;;;8.75;;
32329;SDS011;18807;52.434;13.238;2022-12-24T04:14:02;14.80;;;7.60;;
32329;SDS011;18807;52.434;13.238;2022-12-24T04:21:37;18.30;;;8.73;;
32329;SDS011;18807;52.434;13.238;2022-12-24T04:29:11;14.75;;;8.02;;
32329;SDS011;18807;52.434;13.238;2022-12-24T04:36:46;22.03;;;10.07;;
32329;SDS011;18807;52.434;13.238;2022-12-24T04:44:21;18.00;;;9.27;;
32329;SDS011;18807;52.434;13.238;2022-12-24T04:51:56;17.73;;;9.23;;
32329;SDS011;18807;52.434;13.238;2022-12-24T04:59:30;18.00;;;9.63;;
32329;SDS011;18807;52.434;13.238;2022-12-24T05:07:06;20.13;;;11.00;;
32329;SDS011;18807;52.434;13.238;2022-12-24T05:14:40;18.50;;;10.50;;
32329;SDS011;18807;52.434;13.238;2022-12-24T05:30:07;20.67;;;10.80;;
32329;SDS011;18807;52.434;13.238;2022-12-24T05:37:43;24.88;;;11.45;;
32329;SDS011;18807;52.434;13.238;2022-12-24T05:45:17;19.08;;;10.38;;
32329;SDS011;18807;52.434;13.238;2022-12-24T05:52:53;27.23;;;11.33;;
32329;SDS011;18807;52.434;13.238;2022-12-24T06:00:27;23.08;;;12.30;;
32329;SDS011;18807;52.434;13.238;2022-12-24T06:08:03;22.08;;;10.60;;
32329;SDS011;18807;52.434;13.238;2022-12-24T06:15:37;23.92;;;10.65;;
32329;SDS011;18807;52.434;13.238;2022-12-24T06:23:13;23.10;;;11.60;;
32329;SDS011;18807;52.434;13.238;2022-12-24T06:30:47;24.08;;;12.27;;
32329;SDS011;18807;52.434;13.238;2022-12-24T06:38:29;29.88;;;13.65;;
32329;SDS011;18807;52.434;13.238;2022-12-24T06:46:03;20.60;;;10.75;;
32329;SDS011;18807;52.434;13.238;2022-12-24T06:53:39;20.17;;;10.43;;
32329;SDS011;18807;52.434;13.238;2022-12-24T07:01:13;20.30;;;10.40;;
32329;SDS011;18807;52.434;13.238;2022-12-24T07:08:51;23.23;;;11.93;;
32329;SDS011;18807;52.434;13.238;2022-12-24T07:16:26;20.52;;;10.52;;
32329;SDS011;18807;52.434;13.238;2022-12-24T07:24:01;18.97;;;9.57;;
32329;SDS011;18807;52.434;13.238;2022-12-24T07:31:35;21.52;;;10.25;;
32329;SDS011;18807;52.434;13.238;2022-12-24T07:39:10;24.80;;;11.83;;
32329;SDS011;18807;52.434;13.238;2022-12-24T07:46:44;26.23;;;12.23;;
32329;SDS011;18807;52.434;13.238;2022-12-24T07:54:20;26.83;;;11.97;;
32329;SDS011;18807;52.434;13.238;2022-12-24T08:01:54;23.08;;;11.43;;
32329;SDS011;18807;52.434;13.238;2022-12-24T08:09:31;26.40;;;12.35;;
32329;SDS011;18807;52.434;13.238;2022-12-24T08:17:05;22.15;;;11.63;;
32329;SDS011;18807;52.434;13.238;2022-12-24T08:24:40;24.57;;;12.50;;
32329;SDS011;18807;52.434;13.238;2022-12-24T08:32:14;23.35;;;10.73;;
32329;SDS011;18807;52.434;13.238;2022-12-24T08:39:50;19.63;;;9.40;;
32329;SDS011;18807;52.434;13.238;2022-12-24T08:47:24;24.13;;;11.38;;
32329;SDS011;18807;52.434;13.238;2022-12-24T08:54:59;24.50;;;10.80;;
32329;SDS011;18807;52.434;13.238;2022-12-24T09:02:33;22.13;;;10.45;;
32329;SDS011;18807;52.434;13.238;2022-12-24T09:10:10;22.17;;;11.32;;
32329;SDS011;18807;52.434;13.238;2022-12-24T09:17:44;21.85;;;10.77;;
32329;SDS011;18807;52.434;13.238;2022-12-24T09:25:19;23.43;;;11.50;;
32329;SDS011;18807;52.434;13.238;2022-12-24T09:32:53;23.33;;;10.98;;
32329;SDS011;18807;52.434;13.238;2022-12-24T09:40:32;22.67;;;10.77;;
32329;SDS011;18807;52.434;13.238;2022-12-24T09:48:11;21.83;;;10.75;;
32329;SDS011;18807;52.434;13.238;2022-12-24T09:55:49;23.52;;;12.23;;
32329;SDS011;18807;52.434;13.238;2022-12-24T10:03:26;20.48;;;10.23;;
32329;SDS011;18807;52.434;13.238;2022-12-24T10:11:05;21.13;;;10.38;;
32329;SDS011;18807;52.434;13.238;2022-12-24T10:18:53;17.42;;;9.98;;
32329;SDS011;18807;52.434;13.238;2022-12-24T10:26:35;17.73;;;8.90;;
32329;SDS011;18807;52.434;13.238;2022-12-24T10:34:16;14.48;;;8.00;;
32329;SDS011;18807;52.434;13.238;2022-12-24T10:41:56;13.25;;;6.47;;
32329;SDS011;18807;52.434;13.238;2022-12-24T10:49:33;10.30;;;5.78;;
32329;SDS011;18807;52.434;13.238;2022-12-24T10:57:24;10.45;;;5.63;;
32329;SDS011;18807;52.434;13.238;2022-12-24T11:04:59;9.45;;;5.15;;
32329;SDS011;18807;52.434;13.238;2022-12-24T11:12:37;7.60;;;4.43;;
32329;SDS011;18807;52.434;13.238;2022-12-24T11:20:38;10.32;;;5.85;;
32329;SDS011;18807;52.434;13.238;2022-12-24T11:28:19;8.82;;;5.05;;
32329;SDS011;18807;52.434;13.238;2022-12-24T11:36:02;8.98;;;5.13;;
32329;SDS011;18807;52.434;13.238;2022-12-24T11:43:40;8.25;;;4.22;;
32329;SDS011;18807;52.434;13.238;2022-12-24T11:51:20;9.07;;;4.32;;
32329;SDS011;18807;52.434;13.238;2022-12-24T11:58:58;9.75;;;4.60;;
32329;SDS011;18807;52.434;13.238;2022-12-24T12:06:41;9.15;;;5.80;;
32329;SDS011;18807;52.434;13.238;2022-12-24T12:14:22;9.02;;;5.40;;
32329;SDS011;18807;52.434;13.238;2022-12-24T12:22:04;10.57;;;6.13;;
32329;SDS011;18807;52.434;13.238;2022-12-24T12:29:45;8.25;;;5.28;;
32329;SDS011;18807;52.434;13.238;2022-12-24T12:37:26;10.27;;;4.40;;
32329;SDS011;18807;52.434;13.238;2022-12-24T12:45:11;7.40;;;5.18;;
32329;SDS011;18807;52.434;13.238;2022-12-24T12:53:05;10.68;;;4.60;;
32329;SDS011;18807;52.434;13.238;2022-12-24T13:00:53;17.92;;;5.78;;
32329;SDS011;18807;52.434;13.238;2022-12-24T13:08:44;7.57;;;4.03;;
32329;SDS011;18807;52.434;13.238;2022-12-24T13:25:18;14.20;;;4.45;;
32329;SDS011;18807;52.434;13.238;2022-12-24T13:32:55;13.13;;;4.90;;
32329;SDS011;18807;52.434;13.238;2022-12-24T13:40:30;28.00;;;6.30;;
32329;SDS011;18807;52.434;13.238;2022-12-24T13:48:12;16.50;;;7.13;;
32329;SDS011;18807;52.434;13.238;2022-12-24T13:55:53;14.02;;;5.60;;
32329;SDS011;18807;52.434;13.238;2022-12-24T14:03:29;16.05;;;5.00;;
32329;SDS011;18807;52.434;13.238;2022-12-24T14:11:09;13.73;;;5.72;;
32329;SDS011;18807;52.434;13.238;2022-12-24T14:18:47;14.23;;;6.38;;
32329;SDS011;18807;52.434;13.238;2022-12-24T14:26:32;10.70;;;4.90;;
32329;SDS011;18807;52.434;13.238;2022-12-24T14:34:11;14.77;;;4.22;;
32329;SDS011;18807;52.434;13.238;2022-12-24T14:41:48;15.73;;;6.55;;
32329;SDS011;18807;52.434;13.238;2022-12-24T14:49:35;18.60;;;6.43;;
32329;SDS011;18807;52.434;13.238;2022-12-24T14:57:21;15.40;;;7.28;;
32329;SDS011;18807;52.434;13.238;2022-12-24T15:05:07;13.48;;;5.93;;
32329;SDS011;18807;52.434;13.238;2022-12-24T15:12:45;9.80;;;4.75;;
32329;SDS011;18807;52.434;13.238;2022-12-24T15:20:20;11.85;;;6.53;;
32329;SDS011;18807;52.434;13.238;2022-12-24T15:27:59;12.25;;;7.07;;
32329;SDS011;18807;52.434;13.238;2022-12-24T15:35:34;13.82;;;7.15;;
32329;SDS011;18807;52.434;13.238;2022-12-24T15:43:22;14.18;;;7.20;;
32329;SDS011;18807;52.434;13.238;2022-12-24T15:50:57;13.55;;;7.30;;
32329;SDS011;18807;52.434;13.238;2022-12-24T15:58:35;8.63;;;6.05;;
32329;SDS011;18807;52.434;13.238;2022-12-24T16:06:10;9.82;;;6.60;;
32329;SDS011;18807;52.434;13.238;2022-12-24T16:13:57;9.73;;;6.37;;
32329;SDS011;18807;52.434;13.238;2022-12-24T16:21:35;12.48;;;7.70;;
32329;SDS011;18807;52.434;13.238;2022-12-24T16:29:13;15.48;;;8.68;;
32329;SDS011;18807;52.434;13.238;2022-12-24T16:36:48;15.45;;;9.52;;
32329;SDS011;18807;52.434;13.238;2022-12-24T16:44:23;18.23;;;10.93;;
32329;SDS011;18807;52.434;13.238;2022-12-24T16:51:57;19.02;;;9.23;;
32329;SDS011;18807;52.434;13.238;2022-12-24T16:59:32;20.20;;;9.90;;
32329;SDS011;18807;52.434;13.238;2022-12-24T17:07:06;14.52;;;9.50;;
32329;SDS011;18807;52.434;13.238;2022-12-24T17:14:43;23.30;;;11.82;;
32329;SDS011;18807;52.434;13.238;2022-12-24T17:22:17;21.75;;;13.68;;
32329;SDS011;18807;52.434;13.238;2022-12-24T17:29:53;21.92;;;11.98;;
32329;SDS011;18807;52.434;13.238;2022-12-24T17:37:27;16.40;;;10.25;;
32329;SDS011;18807;52.434;13.238;2022-12-24T17:45:03;20.77;;;11.27;;
32329;SDS011;18807;52.434;13.238;2022-12-24T17:52:37;16.65;;;10.73;;
32329;SDS011;18807;52.434;13.238;2022-12-24T18:00:14;12.47;;;8.80;;
32329;SDS011;18807;52.434;13.238;2022-12-24T18:07:49;23.58;;;13.20;;
32329;SDS011;18807;52.434;13.238;2022-12-24T18:15:24;18.73;;;12.27;;
32329;SDS011;18807;52.434;13.238;2022-12-24T18:22:58;20.15;;;10.65;;
32329;SDS011;18807;52.434;13.238;2022-12-24T18:30:34;15.17;;;8.50;;
32329;SDS011;18807;52.434;13.238;2022-12-24T18:38:08;13.38;;;6.68;;
32329;SDS011;18807;52.434;13.238;2022-12-24T18:45:44;12.40;;;5.40;;
32329;SDS011;18807;52.434;13.238;2022-12-24T18:53:19;12.45;;;6.18;;
32329;SDS011;18807;52.434;13.238;2022-12-24T19:00:54;9.97;;;6.07;;
32329;SDS011;18807;52.434;13.238;2022-12-24T19:08:28;13.30;;;6.40;;
32329;SDS011;18807;52.434;13.238;2022-12-24T19:16:23;14.68;;;6.70;;
32329;SDS011;18807;52.434;13.238;2022-12-24T19:23:58;14.40;;;7.03;;
32329;SDS011;18807;52.434;13.238;2022-12-24T19:31:34;10.20;;;5.67;;
32329;SDS011;18807;52.434;13.238;2022-12-24T19:39:08;10.75;;;5.15;;
32329;SDS011;18807;52.434;13.238;2022-12-24T19:46:43;6.97;;;4.07;;
32329;SDS011;18807;52.434;13.238;2022-12-24T19:54:17;9.45;;;5.18;;
32329;SDS011;18807;52.434;13.238;2022-12-24T20:01:52;12.23;;;4.97;;
32329;SDS011;18807;52.434;13.238;2022-12-24T20:09:27;7.65;;;4.60;;
32329;SDS011;18807;52.434;13.238;2022-12-24T20:17:05;9.80;;;5.10;;
32329;SDS011;18807;52.434;13.238;2022-12-24T20:24:39;8.95;;;5.10;;
32329;SDS011;18807;52.434;13.238;2022-12-24T20:32:15;12.47;;;6.93;;
32329;SDS011;18807;52.434;13.238;2022-12-24T20:39:49;9.98;;;7.85;;
32329;SDS011;18807;52.434;13.238;2022-12-24T20:47:24;16.73;;;9.27;;
32329;SDS011;18807;52.434;13.238;2022-12-24T20:54:59;15.55;;;9.05;;
32329;SDS011;18807;52.434;13.238;2022-12-24T21:02:35;16.90;;;10.27;;
32329;SDS011;18807;52.434;13.238;2022-12-24T21:10:11;20.42;;;9.60;;
32329;SDS011;18807;52.434;13.238;2022-12-24T21:17:47;13.93;;;8.88;;
32329;SDS011;18807;52.434;13.238;2022-12-24T21:25:22;13.77;;;8.35;;
32329;SDS011;18807;52.434;13.238;2022-12-24T21:32:57;15.43;;;7.83;;
32329;SDS011;18807;52.434;13.238;2022-12-24T21:40:31;12.02;;;6.35;;
32329;SDS011;18807;52.434;13.238;2022-12-24T21:48:07;13.83;;;7.47;;
32329;SDS011;18807;52.434;13.238;2022-12-24T21:56:06;13.63;;;7.28;;
32329;SDS011;18807;52.434;13.238;2022-12-24T22:03:42;12.55;;;6.65;;
32329;SDS011;18807;52.434;13.238;2022-12-24T22:11:17;12.23;;;6.82;;
32329;SDS011;18807;52.434;13.238;2022-12-24T22:19:09;19.10;;;7.40;;
32329;SDS011;18807;52.434;13.238;2022-12-24T22:26:43;13.75;;;6.68;;
32329;SDS011;18807;52.434;13.238;2022-12-24T22:41:53;14.70;;;6.83;;
32329;SDS011;18807;52.434;13.238;2022-12-24T22:49:30;16.33;;;8.50;;
32329;SDS011;18807;52.434;13.238;2022-12-24T22:57:06;13.80;;;6.78;;
32329;SDS011;18807;52.434;13.238;2022-12-24T23:04:42;16.93;;;6.70;;
32329;SDS011;18807;52.434;13.238;2022-12-24T23:12:15;14.40;;;6.18;;
32329;SDS011;18807;52.434;13.238;2022-12-24T23:20:11;9.15;;;5.15;;
32329;SDS011;18807;52.434;13.238;2022-12-24T23:27:45;12.73;;;5.93;;
32329;SDS011;18807;52.434;13.238;2022-12-24T23:35:20;10.57;;;5.37;;
32329;SDS011;18807;52.434;13.238;2022-12-24T23:42:54;10.48;;;5.15;;
32329;SDS011;18807;52.434;13.238;2022-12-24T23:50:30;11.33;;;5.67;;
32329;SDS011;18807;52.434;13.238;2022-12-24T23:58:04;10.32;;;4.97;;
